createdAt,value
2018-06-28T00:00:44.628Z,99.90
2018-06-28T00:02:47.708Z,99.90
2018-06-28T00:04:50.967Z,99.90
2018-06-28T00:06:54.068Z,99.90
2018-06-28T00:08:57.306Z,99.90
2018-06-28T00:11:00.268Z,99.90
2018-06-28T00:13:03.536Z,99.90
2018-06-28T00:15:06.645Z,99.90
2018-06-28T00:17:09.728Z,99.90
2018-06-28T00:19:12.808Z,99.90
2018-06-28T00:21:15.896Z,99.90
2018-06-28T00:23:18.992Z,99.90
2018-06-28T00:25:22.144Z,99.90
2018-06-28T00:27:25.237Z,99.90
2018-06-28T00:29:28.348Z,99.90
2018-06-28T00:31:31.460Z,99.90
2018-06-28T00:33:34.560Z,99.90
2018-06-28T00:35:37.664Z,99.90
2018-06-28T00:37:40.764Z,99.90
2018-06-28T00:39:43.847Z,99.90
2018-06-28T00:41:46.920Z,99.90
2018-06-28T00:43:50.021Z,99.90
2018-06-28T00:45:53.118Z,99.90
2018-06-28T00:47:56.240Z,99.90
2018-06-28T00:49:59.349Z,99.90
2018-06-28T00:52:02.446Z,99.90
2018-06-28T00:54:05.597Z,99.90
2018-06-28T00:56:08.728Z,99.90
2018-06-28T00:58:11.886Z,99.90
2018-06-28T01:00:15.020Z,99.90
2018-06-28T01:02:18.124Z,99.90
2018-06-28T01:04:21.245Z,99.90
2018-06-28T01:06:24.386Z,99.90
2018-06-28T01:08:27.480Z,99.90
2018-06-28T01:10:30.605Z,99.90
2018-06-28T01:12:34.421Z,99.90
2018-06-28T01:14:37.540Z,99.90
2018-06-28T01:16:40.649Z,99.90
2018-06-28T01:18:43.757Z,99.90
2018-06-28T01:20:46.876Z,99.90
2018-06-28T01:22:49.976Z,99.90
2018-06-28T01:24:53.100Z,99.90
2018-06-28T01:26:56.206Z,99.90
2018-06-28T01:28:59.589Z,99.90
2018-06-28T01:31:02.696Z,99.90
2018-06-28T01:33:06.007Z,99.90
2018-06-28T01:35:09.125Z,99.90
2018-06-28T01:37:13.211Z,99.90
2018-06-28T01:39:16.295Z,99.90
2018-06-28T01:41:19.392Z,99.90
2018-06-28T01:43:35.453Z,99.90
2018-06-28T01:45:38.540Z,99.90
2018-06-28T01:47:41.673Z,99.90
2018-06-28T01:49:44.781Z,99.90
2018-06-28T01:51:47.945Z,99.90
2018-06-28T01:55:54.384Z,99.90
2018-06-28T01:57:57.468Z,99.90
2018-06-28T02:00:00.556Z,99.90
2018-06-28T02:02:03.672Z,99.90
2018-06-28T02:04:06.824Z,99.90
2018-06-28T02:06:09.896Z,99.90
2018-06-28T02:08:12.997Z,99.90
2018-06-28T02:10:16.064Z,99.90
2018-06-28T02:12:19.174Z,99.90
2018-06-28T02:14:22.239Z,99.90
2018-06-28T02:16:25.324Z,99.90
2018-06-28T02:18:28.423Z,99.90
2018-06-28T02:20:31.526Z,99.90
2018-06-28T02:22:34.624Z,99.90
2018-06-28T02:24:37.756Z,99.90
2018-06-28T02:26:40.876Z,99.90
2018-06-28T02:28:43.968Z,99.90
2018-06-28T02:30:47.056Z,99.90
2018-06-28T02:34:53.213Z,99.90
2018-06-28T02:36:56.307Z,99.90
2018-06-28T02:38:59.392Z,99.90
2018-06-28T02:41:02.522Z,99.90
2018-06-28T02:43:05.743Z,99.90
2018-06-28T02:45:08.858Z,99.90
2018-06-28T02:47:11.944Z,99.90
2018-06-28T02:49:15.028Z,99.90
2018-06-28T02:51:18.133Z,99.90
2018-06-28T02:53:21.268Z,99.90
2018-06-28T02:55:24.400Z,99.90
2018-06-28T02:57:27.727Z,99.90
2018-06-28T02:59:30.816Z,99.90
2018-06-28T03:01:33.933Z,99.90
2018-06-28T03:03:37.280Z,99.90
2018-06-28T03:05:40.392Z,99.90
2018-06-28T03:07:43.468Z,99.90
2018-06-28T03:09:46.564Z,99.90
2018-06-28T03:11:49.669Z,99.90
2018-06-28T03:13:52.777Z,99.90
2018-06-28T03:15:55.880Z,99.90
2018-06-28T03:17:59.191Z,99.90
2018-06-28T03:20:02.279Z,99.90
2018-06-28T03:22:05.369Z,99.90
2018-06-28T03:24:08.489Z,99.90
2018-06-28T03:26:11.600Z,99.90
2018-06-28T03:28:14.685Z,99.90
2018-06-28T03:30:17.797Z,99.90
2018-06-28T03:32:20.971Z,99.90
2018-06-28T03:34:24.065Z,99.90
2018-06-28T03:36:27.172Z,99.90
2018-06-28T03:38:30.260Z,99.90
2018-06-28T03:40:33.348Z,99.90
2018-06-28T03:42:36.464Z,99.90
2018-06-28T03:48:45.680Z,99.90
2018-06-28T03:50:48.801Z,99.90
2018-06-28T03:52:51.889Z,99.90
2018-06-28T03:54:55.480Z,99.90
2018-06-28T03:56:58.589Z,99.90
2018-06-28T03:59:01.688Z,99.90
2018-06-28T04:01:04.772Z,99.90
2018-06-28T04:03:07.901Z,99.90
2018-06-28T04:05:11.003Z,99.90
2018-06-28T04:07:14.110Z,99.90
2018-06-28T04:09:17.208Z,99.90
2018-06-28T04:11:20.316Z,99.90
2018-06-28T04:13:23.402Z,99.90
2018-06-28T04:15:26.482Z,99.90
2018-06-28T04:17:29.575Z,99.90
2018-06-28T04:19:32.657Z,99.90
2018-06-28T04:21:35.736Z,99.90
2018-06-28T04:23:38.929Z,99.90
2018-06-28T04:25:42.009Z,99.90
2018-06-28T04:27:45.117Z,99.90
2018-06-28T04:29:48.220Z,99.90
2018-06-28T04:31:51.307Z,99.90
2018-06-28T04:33:54.472Z,99.90
2018-06-28T04:35:57.586Z,99.90
2018-06-28T04:38:00.686Z,99.90
2018-06-28T04:40:03.780Z,99.90
2018-06-28T04:42:06.890Z,99.90
2018-06-28T04:44:10.000Z,99.90
2018-06-28T04:46:13.080Z,99.90
2018-06-28T04:48:16.200Z,99.90
2018-06-28T04:50:19.284Z,99.90
2018-06-28T04:52:22.400Z,99.90
2018-06-28T04:54:25.526Z,99.90
2018-06-28T04:56:28.651Z,99.90
2018-06-28T04:58:31.782Z,99.90
2018-06-28T05:00:34.991Z,99.90
2018-06-28T05:02:38.068Z,99.90
2018-06-28T05:04:41.156Z,99.90
2018-06-28T05:06:44.244Z,99.90
2018-06-28T05:08:47.368Z,99.90
2018-06-28T05:10:50.473Z,99.90
2018-06-28T05:12:53.637Z,99.90
2018-06-28T05:14:56.724Z,99.90
2018-06-28T05:16:59.877Z,98.50
2018-06-28T05:19:02.946Z,94.90
2018-06-28T05:23:08.944Z,88.00
2018-06-28T05:25:12.073Z,81.60
2018-06-28T05:27:15.177Z,77.30
2018-06-28T05:29:18.317Z,71.30
2018-06-28T05:33:24.316Z,69.00
2018-06-28T05:35:27.416Z,66.40
2018-06-28T05:37:30.524Z,64.80
2018-06-28T05:39:33.740Z,61.60
2018-06-28T05:41:36.964Z,59.30
2018-06-28T05:43:40.187Z,58.00
2018-06-28T05:47:46.230Z,55.80
2018-06-28T05:49:49.372Z,57.00
2018-06-28T05:51:52.474Z,55.40
2018-06-28T05:53:55.652Z,52.80
2018-06-28T05:55:58.774Z,52.60
2018-06-28T05:58:01.896Z,51.10
2018-06-28T06:00:05.591Z,51.70
2018-06-28T06:02:08.704Z,49.30
2018-06-28T06:04:11.815Z,49.90
2018-06-28T06:06:14.940Z,47.60
2018-06-28T06:08:18.047Z,48.90
2018-06-28T06:10:21.169Z,46.80
2018-06-28T06:12:24.249Z,46.40
2018-06-28T06:14:27.328Z,44.80
2018-06-28T06:16:30.424Z,43.40
2018-06-28T06:18:33.516Z,43.60
2018-06-28T06:20:36.658Z,41.70
2018-06-28T06:22:39.784Z,41.10
2018-06-28T06:24:42.917Z,40.90
2018-06-28T06:26:46.021Z,41.20
2018-06-28T06:28:49.136Z,39.80
2018-06-28T06:30:52.220Z,38.40
2018-06-28T06:32:55.359Z,38.10
2018-06-28T06:34:58.497Z,38.60
2018-06-28T06:37:01.649Z,39.20
2018-06-28T06:39:07.842Z,38.30
2018-06-28T06:41:10.960Z,37.30
2018-06-28T06:43:14.060Z,37.00
2018-06-28T06:45:17.188Z,37.10
2018-06-28T06:47:20.512Z,37.50
2018-06-28T06:49:23.613Z,35.70
2018-06-28T06:51:26.704Z,37.20
2018-06-28T06:53:29.796Z,37.20
2018-06-28T06:55:32.889Z,36.40
2018-06-28T06:57:36.004Z,36.40
2018-06-28T06:59:39.198Z,35.90
2018-06-28T07:01:42.264Z,34.60
2018-06-28T07:03:45.387Z,35.20
2018-06-28T07:05:48.453Z,36.90
2018-06-28T07:07:51.536Z,39.70
2018-06-28T07:09:54.629Z,40.10
2018-06-28T07:11:57.716Z,40.60
2018-06-28T07:14:00.812Z,41.80
2018-06-28T07:16:03.935Z,41.60
2018-06-28T07:18:07.008Z,43.70
2018-06-28T07:20:10.108Z,45.50
2018-06-28T07:22:13.241Z,45.60
2018-06-28T07:24:16.328Z,46.10
2018-06-28T07:26:19.432Z,46.90
2018-06-28T07:28:22.523Z,47.00
2018-06-28T07:32:28.545Z,48.30
2018-06-28T07:34:31.640Z,48.10
2018-06-28T07:36:34.725Z,49.20
2018-06-28T07:38:37.872Z,49.10
2018-06-28T07:40:41.027Z,50.10
2018-06-28T07:42:44.160Z,49.50
2018-06-28T07:44:47.260Z,50.50
2018-06-28T07:46:50.369Z,48.30
2018-06-28T07:48:53.464Z,48.60
2018-06-28T07:52:59.529Z,48.80
2018-06-28T07:55:02.629Z,47.60
2018-06-28T07:57:05.737Z,47.90
2018-06-28T08:01:11.769Z,48.90
2018-06-28T08:03:15.757Z,48.70
2018-06-28T08:05:18.978Z,49.80
2018-06-28T08:09:24.961Z,49.70
2018-06-28T08:11:28.032Z,50.10
2018-06-28T08:13:31.109Z,50.00
2018-06-28T08:15:34.201Z,51.30
2018-06-28T08:17:37.332Z,48.20
2018-06-28T08:19:40.480Z,48.70
2018-06-28T08:21:43.637Z,49.90
2018-06-28T08:25:49.671Z,50.40
2018-06-28T08:27:52.752Z,51.00
2018-06-28T08:29:55.901Z,50.00
2018-06-28T08:31:58.996Z,49.80
2018-06-28T08:34:02.183Z,50.40
2018-06-28T08:36:05.300Z,49.40
2018-06-28T08:38:08.376Z,48.90
2018-06-28T08:40:11.468Z,47.90
2018-06-28T08:42:14.557Z,47.20
2018-06-28T08:44:17.995Z,44.90
2018-06-28T08:48:24.055Z,46.20
2018-06-28T08:52:30.814Z,44.90
2018-06-28T08:54:33.938Z,45.20
2018-06-28T08:56:37.033Z,44.30
2018-06-28T08:58:40.132Z,45.20
2018-06-28T09:00:43.229Z,45.40
2018-06-28T09:02:46.356Z,45.90
2018-06-28T09:06:52.488Z,45.60
2018-06-28T09:08:55.617Z,45.60
2018-06-28T09:13:01.852Z,46.40
2018-06-28T09:15:04.970Z,45.90
2018-06-28T09:19:11.055Z,43.50
2018-06-28T09:23:17.242Z,44.50
2018-06-28T09:25:20.316Z,44.90
2018-06-28T09:27:23.422Z,44.30
2018-06-28T09:29:26.516Z,44.50
2018-06-28T09:31:29.595Z,44.60
2018-06-28T09:33:32.688Z,45.70
2018-06-28T09:35:35.809Z,45.00
2018-06-28T09:37:38.923Z,45.60
2018-06-28T09:39:42.038Z,45.00
2018-06-28T09:41:46.112Z,45.50
2018-06-28T09:43:49.236Z,45.40
2018-06-28T09:45:52.332Z,45.20
2018-06-28T09:47:55.445Z,44.90
2018-06-28T09:49:58.568Z,45.30
2018-06-28T09:52:02.728Z,45.40
2018-06-28T09:54:05.862Z,45.50
2018-06-28T09:56:09.183Z,45.30
2018-06-28T09:58:12.319Z,45.40
2018-06-28T10:00:21.714Z,45.80
2018-06-28T10:02:24.757Z,46.30
2018-06-28T10:04:27.864Z,45.90
2018-06-28T10:06:30.966Z,45.60
2018-06-28T10:08:34.120Z,45.20
2018-06-28T10:10:37.256Z,45.50
2018-06-28T10:12:40.360Z,43.10
2018-06-28T10:14:43.499Z,43.60
2018-06-28T10:16:47.440Z,43.50
2018-06-28T10:20:53.472Z,43.40
2018-06-28T10:22:56.556Z,43.70
2018-06-28T10:24:59.758Z,42.80
2018-06-28T10:27:02.820Z,42.70
2018-06-28T10:29:05.908Z,43.50
2018-06-28T10:31:09.040Z,44.00
2018-06-28T10:33:12.138Z,43.40
2018-06-28T10:35:15.368Z,44.70
2018-06-28T10:37:18.464Z,43.50
2018-06-28T10:39:21.568Z,43.50
2018-06-28T10:41:24.689Z,44.10
2018-06-28T10:43:27.786Z,44.20
2018-06-28T10:45:30.887Z,41.60
2018-06-28T10:47:34.017Z,41.60
2018-06-28T10:49:37.076Z,41.20
2018-06-28T10:51:40.219Z,42.20
2018-06-28T10:53:43.320Z,41.20
2018-06-28T10:55:46.589Z,42.60
2018-06-28T10:57:49.781Z,41.70
2018-06-28T10:59:53.496Z,41.20
2018-06-28T11:01:56.601Z,42.00
2018-06-28T11:03:59.679Z,42.60
2018-06-28T11:06:02.768Z,42.50
2018-06-28T11:08:05.864Z,41.90
2018-06-28T11:10:08.997Z,42.30
2018-06-28T11:12:12.099Z,42.00
2018-06-28T11:14:15.216Z,41.90
2018-06-28T11:16:18.315Z,41.50
2018-06-28T11:18:23.737Z,41.20
2018-06-28T11:20:26.912Z,40.40
2018-06-28T11:22:30.105Z,40.20
2018-06-28T11:24:33.209Z,40.30
2018-06-28T11:26:37.181Z,39.70
2018-06-28T11:28:40.332Z,39.60
2018-06-28T11:30:45.247Z,40.10
2018-06-28T11:34:51.825Z,40.40
2018-06-28T11:38:57.988Z,41.00
2018-06-28T11:41:01.335Z,39.70
2018-06-28T11:43:04.728Z,41.80
2018-06-28T11:45:07.833Z,40.70
2018-06-28T11:47:10.948Z,41.50
2018-06-28T11:49:14.040Z,41.60
2018-06-28T11:51:17.303Z,42.80
2018-06-28T11:53:20.408Z,41.00
2018-06-28T11:57:27.571Z,39.80
2018-06-28T11:59:30.676Z,40.90
2018-06-28T12:01:33.802Z,41.50
2018-06-28T12:05:39.921Z,41.60
2018-06-28T12:07:43.060Z,41.60
2018-06-28T12:09:47.148Z,40.20
2018-06-28T12:11:50.280Z,40.50
2018-06-28T12:13:53.467Z,40.30
2018-06-28T12:15:56.557Z,40.00
2018-06-28T12:17:59.659Z,38.80
2018-06-28T12:20:02.944Z,38.70
2018-06-28T12:22:06.288Z,38.40
2018-06-28T12:24:10.463Z,38.50
2018-06-28T12:26:13.589Z,40.10
2018-06-28T12:28:20.792Z,39.30
2018-06-28T12:30:24.161Z,40.50
2018-06-28T12:32:27.255Z,39.20
2018-06-28T12:34:30.498Z,39.50
2018-06-28T12:36:33.601Z,39.40
2018-06-28T12:38:36.707Z,40.10
2018-06-28T12:40:41.447Z,40.00
2018-06-28T12:42:44.546Z,39.90
2018-06-28T12:44:47.631Z,40.30
2018-06-28T12:48:58.984Z,40.50
2018-06-28T12:51:02.717Z,39.70
2018-06-28T12:53:07.240Z,38.40
2018-06-28T12:55:10.720Z,39.10
2018-06-28T12:57:13.786Z,38.80
2018-06-28T12:59:19.044Z,38.50
2018-06-28T13:01:23.352Z,39.30
2018-06-28T13:03:26.436Z,39.50
2018-06-28T13:05:29.508Z,39.40
2018-06-28T13:07:32.592Z,39.30
2018-06-28T13:09:35.684Z,38.70
2018-06-28T13:11:38.756Z,37.30
2018-06-28T13:13:42.481Z,36.60
2018-06-28T13:15:45.569Z,36.70
2018-06-28T13:17:48.640Z,37.20
2018-06-28T13:19:51.728Z,38.30
2018-06-28T13:21:54.799Z,38.10
2018-06-28T13:23:58.505Z,38.30
2018-06-28T13:26:01.610Z,37.80
2018-06-28T13:28:04.912Z,38.60
2018-06-28T13:30:09.022Z,38.30
2018-06-28T13:32:12.196Z,38.90
2018-06-28T13:34:15.289Z,39.00
2018-06-28T13:36:18.377Z,38.20
2018-06-28T13:38:21.449Z,38.10
2018-06-28T13:40:24.556Z,37.70
2018-06-28T13:42:27.660Z,38.00
2018-06-28T13:44:31.837Z,38.10
2018-06-28T13:46:35.224Z,38.00
2018-06-28T13:48:38.300Z,38.50
2018-06-28T13:50:41.404Z,38.40
2018-06-28T13:52:44.475Z,37.60
2018-06-28T13:54:47.611Z,37.00
2018-06-28T13:58:53.628Z,34.50
2018-06-28T14:00:56.741Z,35.00
2018-06-28T14:03:00.283Z,35.40
2018-06-28T14:05:03.312Z,35.00
2018-06-28T14:07:06.424Z,34.90
2018-06-28T14:09:11.607Z,35.10
2018-06-28T14:11:14.700Z,35.90
2018-06-28T14:13:17.820Z,37.20
2018-06-28T14:15:20.925Z,38.10
2018-06-28T14:17:24.041Z,38.30
2018-06-28T14:19:27.246Z,39.10
2018-06-28T14:21:30.340Z,39.10
2018-06-28T14:23:33.440Z,37.60
2018-06-28T14:25:36.548Z,37.60
2018-06-28T14:29:42.829Z,37.60
2018-06-28T14:31:45.951Z,37.60
2018-06-28T14:33:49.050Z,37.50
2018-06-28T14:35:52.133Z,37.80
2018-06-28T14:37:55.231Z,37.50
2018-06-28T14:39:58.327Z,37.10
2018-06-28T14:42:01.479Z,37.60
2018-06-28T14:44:04.962Z,37.30
2018-06-28T14:46:08.052Z,37.60
2018-06-28T14:48:11.174Z,37.80
2018-06-28T14:50:14.324Z,36.40
2018-06-28T14:52:17.446Z,37.50
2018-06-28T14:54:20.545Z,36.90
2018-06-28T14:56:23.649Z,36.60
2018-06-28T14:58:26.760Z,37.00
2018-06-28T15:00:29.872Z,37.80
2018-06-28T15:02:32.968Z,37.10
2018-06-28T15:04:36.072Z,37.90
2018-06-28T15:06:39.184Z,38.30
2018-06-28T15:08:42.291Z,38.50
2018-06-28T15:10:45.399Z,37.70
2018-06-28T15:12:48.500Z,38.00
2018-06-28T15:14:51.605Z,38.00
2018-06-28T15:16:54.791Z,38.10
2018-06-28T15:19:04.544Z,37.50
2018-06-28T15:21:07.661Z,36.90
2018-06-28T15:23:10.763Z,37.20
2018-06-28T15:25:13.868Z,37.80
2018-06-28T15:27:16.992Z,37.50
2018-06-28T15:29:20.496Z,37.80
2018-06-28T15:31:23.596Z,37.40
2018-06-28T15:33:26.907Z,36.60
2018-06-28T15:35:30.019Z,36.60
2018-06-28T15:37:33.112Z,36.60
2018-06-28T15:39:36.222Z,36.10
2018-06-28T15:41:39.831Z,36.60
2018-06-28T15:43:42.947Z,36.40
2018-06-28T15:45:46.067Z,36.60
2018-06-28T15:49:52.041Z,38.20
2018-06-28T15:51:55.215Z,37.70
2018-06-28T15:53:58.296Z,37.20
2018-06-28T15:56:01.431Z,35.60
2018-06-28T15:58:04.655Z,35.60
2018-06-28T16:02:10.745Z,35.90
2018-06-28T16:04:13.856Z,35.90
2018-06-28T16:08:42.775Z,36.80
2018-06-28T16:10:45.895Z,37.40
2018-06-28T16:14:52.060Z,37.70
2018-06-28T16:18:58.099Z,37.00
2018-06-28T16:21:01.404Z,38.20
2018-06-28T16:23:04.535Z,37.60
2018-06-28T16:25:07.691Z,38.40
2018-06-28T16:27:10.927Z,37.30
2018-06-28T16:29:14.042Z,36.40
2018-06-28T16:31:17.168Z,36.00
2018-06-28T16:33:20.317Z,36.30
2018-06-28T16:35:23.464Z,36.00
2018-06-28T16:37:26.683Z,36.00
2018-06-28T16:39:29.794Z,36.50
2018-06-28T16:41:32.904Z,37.60
2018-06-28T16:43:36.037Z,37.90
2018-06-28T16:45:39.204Z,37.30
2018-06-28T16:47:42.709Z,37.70
2018-06-28T16:49:45.804Z,37.30
2018-06-28T16:51:48.915Z,37.60
2018-06-28T16:53:52.018Z,36.90
2018-06-28T16:55:55.137Z,37.40
2018-06-28T16:57:58.236Z,38.00
2018-06-28T17:00:01.329Z,38.00
2018-06-28T17:02:04.436Z,38.60
2018-06-28T17:04:07.556Z,38.50
2018-06-28T17:06:10.721Z,39.20
2018-06-28T17:08:13.825Z,38.40
2018-06-28T17:10:16.923Z,39.20
2018-06-28T17:12:20.045Z,39.80
2018-06-28T17:14:23.165Z,39.00
2018-06-28T17:18:29.244Z,38.70
2018-06-28T17:22:35.422Z,37.90
2018-06-28T17:24:38.520Z,38.30
2018-06-28T17:26:41.670Z,36.90
2018-06-28T17:28:44.773Z,37.80
2018-06-28T17:30:47.896Z,37.20
2018-06-28T17:32:51.083Z,36.90
2018-06-28T17:34:54.112Z,37.20
2018-06-28T17:39:00.413Z,36.90
2018-06-28T17:41:03.511Z,36.90
2018-06-28T17:43:06.720Z,37.70
2018-06-28T17:45:09.804Z,38.30
2018-06-28T17:47:12.904Z,37.20
2018-06-28T17:49:16.008Z,35.30
2018-06-28T17:51:19.091Z,33.30
2018-06-28T17:55:25.148Z,29.60
2018-06-28T17:57:28.264Z,27.20
2018-06-28T18:01:34.288Z,27.80
2018-06-28T18:07:43.341Z,24.70
2018-06-28T18:09:46.435Z,25.20
2018-06-28T18:11:49.536Z,25.30
2018-06-28T18:13:52.650Z,24.80
2018-06-28T18:15:55.766Z,24.40
2018-06-28T18:17:58.854Z,24.30
2018-06-28T18:20:02.048Z,25.00
2018-06-28T18:22:05.341Z,24.70
2018-06-28T18:24:08.461Z,24.80
2018-06-28T18:26:11.548Z,24.50
2018-06-28T18:28:14.636Z,24.00
2018-06-28T18:30:17.847Z,23.80
2018-06-28T18:32:20.877Z,23.90
2018-06-28T18:34:23.977Z,24.30
2018-06-28T18:36:27.071Z,24.70
2018-06-28T18:40:33.157Z,25.20
2018-06-28T18:42:36.236Z,25.80
2018-06-28T18:44:39.356Z,25.70
2018-06-28T18:46:42.520Z,25.80
2018-06-28T18:48:46.848Z,26.70
2018-06-28T18:50:50.147Z,28.70
2018-06-28T18:54:56.022Z,33.10
2018-06-28T18:56:59.128Z,34.70
2018-06-28T19:01:05.482Z,37.20
2018-06-28T19:03:08.572Z,38.90
2018-06-28T19:05:11.668Z,39.70
2018-06-28T19:07:14.773Z,40.90
2018-06-28T19:09:17.873Z,41.50
2018-06-28T19:11:20.979Z,42.40
2018-06-28T19:13:25.407Z,42.80
2018-06-28T19:15:33.948Z,43.20
2018-06-28T19:17:37.062Z,44.00
2018-06-28T19:19:40.244Z,44.80
2018-06-28T19:21:48.863Z,44.80
2018-06-28T19:23:52.727Z,45.30
2018-06-28T19:25:55.855Z,45.30
2018-06-28T19:27:58.950Z,45.80
2018-06-28T19:30:07.392Z,46.30
2018-06-28T19:32:15.970Z,46.60
2018-06-28T19:36:22.073Z,47.80
2018-06-28T19:38:25.169Z,48.20
2018-06-28T19:40:33.509Z,48.30
2018-06-28T19:42:41.996Z,48.70
2018-06-28T19:44:45.103Z,48.50
2018-06-28T19:46:48.212Z,48.90
2018-06-28T19:48:51.307Z,49.40
2018-06-28T19:51:00.020Z,49.50
2018-06-28T19:53:11.430Z,49.90
2018-06-28T19:55:14.549Z,50.60
2018-06-28T19:59:20.594Z,51.90
2018-06-28T20:01:28.996Z,51.90
2018-06-28T20:03:37.431Z,52.30
2018-06-28T20:05:40.558Z,52.50
2018-06-28T20:07:43.672Z,52.30
2018-06-28T20:09:47.273Z,52.70
2018-06-28T20:11:50.377Z,53.00
2018-06-28T20:13:59.400Z,53.30
2018-06-28T20:16:08.156Z,53.40
2018-06-28T20:18:16.856Z,53.80
2018-06-28T20:20:20.176Z,54.30
2018-06-28T20:22:23.284Z,54.50
2018-06-28T20:24:26.489Z,54.70
2018-06-28T20:26:34.980Z,54.70
2018-06-28T20:28:43.698Z,54.70
2018-06-28T20:30:52.260Z,54.90
2018-06-28T20:33:00.816Z,55.30
2018-06-28T20:35:04.597Z,56.10
2018-06-28T20:37:07.732Z,56.00
2018-06-28T20:39:11.221Z,56.40
2018-06-28T20:41:14.327Z,56.60
2018-06-28T20:43:17.428Z,56.90
2018-06-28T20:45:20.533Z,56.90
2018-06-28T20:47:23.762Z,57.20
2018-06-28T20:49:26.883Z,57.40
2018-06-28T20:51:30.036Z,57.70
2018-06-28T20:53:33.141Z,57.90
2018-06-28T20:55:36.716Z,58.00
2018-06-28T20:57:39.812Z,59.00
2018-06-28T20:59:42.929Z,59.40
2018-06-28T21:01:46.032Z,59.70
2018-06-28T21:03:49.115Z,60.20
2018-06-28T21:05:52.204Z,60.70
2018-06-28T21:07:55.656Z,61.40
2018-06-28T21:09:58.814Z,62.10
2018-06-28T21:14:04.948Z,63.00
2018-06-28T21:16:08.060Z,63.40
2018-06-28T21:18:11.220Z,63.80
2018-06-28T21:20:14.307Z,64.40
2018-06-28T21:22:17.548Z,64.70
2018-06-28T21:24:20.701Z,65.60
2018-06-28T21:26:23.834Z,66.00
2018-06-28T21:28:27.896Z,66.30
2018-06-28T21:30:31.005Z,66.70
2018-06-28T21:32:34.164Z,67.30
2018-06-28T21:34:37.421Z,67.10
2018-06-28T21:36:40.518Z,67.40
2018-06-28T21:38:43.808Z,68.00
2018-06-28T21:40:46.896Z,68.70
2018-06-28T21:42:50.001Z,68.50
2018-06-28T21:44:53.175Z,68.80
2018-06-28T21:46:56.384Z,69.40
2018-06-28T21:48:59.496Z,69.90
2018-06-28T21:51:03.085Z,70.30
2018-06-28T21:53:06.219Z,70.60
2018-06-28T21:55:09.346Z,70.80
2018-06-28T21:57:12.508Z,71.20
2018-06-28T21:59:16.231Z,71.80
2018-06-28T22:01:19.328Z,72.00
2018-06-28T22:03:22.416Z,72.20
2018-06-28T22:05:25.564Z,72.60
2018-06-28T22:07:28.752Z,73.10
2018-06-28T22:09:31.964Z,73.70
2018-06-28T22:11:35.064Z,73.90
2018-06-28T22:13:38.224Z,74.00
2018-06-28T22:15:41.412Z,74.40
2018-06-28T22:17:44.504Z,74.30
2018-06-28T22:19:47.684Z,74.30
2018-06-28T22:21:50.725Z,74.70
2018-06-28T22:23:53.844Z,75.20
2018-06-28T22:25:56.936Z,75.40
2018-06-28T22:28:00.057Z,75.90
2018-06-28T22:30:03.162Z,77.10
2018-06-28T22:32:06.284Z,76.70
2018-06-28T22:34:09.832Z,77.30
2018-06-28T22:36:12.912Z,78.20
2018-06-28T22:40:18.936Z,78.80
2018-06-28T22:42:22.282Z,80.20
2018-06-28T22:44:25.384Z,80.70
2018-06-28T22:46:28.500Z,81.10
2018-06-28T22:48:31.620Z,81.50
2018-06-28T22:50:34.712Z,81.80
2018-06-28T22:54:40.748Z,81.70
2018-06-28T22:56:43.860Z,82.40
2018-06-28T22:58:46.952Z,82.70
2018-06-28T23:00:50.055Z,84.30
2018-06-28T23:02:53.152Z,83.80
2018-06-28T23:04:56.315Z,84.10
2018-06-28T23:06:59.445Z,84.30
2018-06-28T23:09:02.585Z,84.50
2018-06-28T23:11:05.685Z,84.00
2018-06-28T23:13:08.781Z,83.40
2018-06-28T23:15:11.917Z,84.30
2018-06-28T23:17:15.056Z,84.60
2018-06-28T23:19:18.246Z,84.70
2018-06-28T23:21:21.306Z,85.80
2018-06-28T23:23:24.416Z,86.20
2018-06-28T23:25:27.564Z,86.40
2018-06-28T23:27:30.685Z,86.80
2018-06-28T23:29:33.776Z,87.30
2018-06-28T23:31:36.983Z,87.10
2018-06-28T23:33:40.133Z,87.20
2018-06-28T23:35:43.246Z,87.10
2018-06-28T23:37:46.383Z,87.80
2018-06-28T23:39:50.073Z,88.00
2018-06-28T23:41:53.199Z,88.80
2018-06-28T23:43:56.307Z,88.60
2018-06-28T23:45:59.443Z,88.90
2018-06-28T23:48:03.297Z,88.50
2018-06-28T23:50:08.372Z,88.70
2018-06-28T23:52:11.578Z,88.70
2018-06-28T23:54:14.679Z,88.90
2018-06-28T23:56:17.823Z,89.20
2018-06-28T23:58:20.928Z,89.40
